createdAt,value
2022-08-26T00:02:07.153Z,28.83
2022-08-26T00:04:35.245Z,29.92
2022-08-26T00:07:03.241Z,32.38
2022-08-26T00:09:39.027Z,33.70
2022-08-26T00:12:12.226Z,31.75
2022-08-26T00:14:41.684Z,33.78
2022-08-26T00:17:09.677Z,30.25
2022-08-26T00:19:37.608Z,39.80
2022-08-26T00:22:05.791Z,33.58
2022-08-26T00:24:33.693Z,35.67
2022-08-26T00:27:01.586Z,27.08
2022-08-26T00:29:32.027Z,36.15
2022-08-26T00:32:06.259Z,29.17
2022-08-26T00:34:35.339Z,33.45
2022-08-26T00:37:03.740Z,36.28
2022-08-26T00:39:37.025Z,34.40
2022-08-26T00:42:05.629Z,33.05
2022-08-26T00:44:35.210Z,27.35
2022-08-26T00:47:08.830Z,29.23
2022-08-26T00:49:40.022Z,33.15
2022-08-26T00:52:11.955Z,32.85
2022-08-26T00:54:46.985Z,38.53
2022-08-26T00:57:19.032Z,31.42
2022-08-26T00:59:52.271Z,32.65
2022-08-26T01:02:21.512Z,34.38
2022-08-26T01:04:54.230Z,31.60
2022-08-26T01:07:26.324Z,33.38
2022-08-26T01:09:55.994Z,32.75
2022-08-26T01:12:24.874Z,34.70
2022-08-26T01:14:55.168Z,26.17
2022-08-26T01:17:23.857Z,33.63
2022-08-26T01:19:55.372Z,32.90
2022-08-26T01:22:28.648Z,37.85
2022-08-26T01:24:59.708Z,31.52
2022-08-26T01:27:32.711Z,35.03
2022-08-26T01:30:02.948Z,36.45
2022-08-26T01:32:33.944Z,34.53
2022-08-26T01:35:04.448Z,26.05
2022-08-26T01:37:37.255Z,30.10
2022-08-26T01:40:17.538Z,27.75
2022-08-26T01:42:46.699Z,34.83
2022-08-26T01:45:19.646Z,29.58
2022-08-26T01:47:49.312Z,29.88
2022-08-26T01:50:30.252Z,28.13
2022-08-26T01:53:02.120Z,37.78
2022-08-26T01:55:33.303Z,28.55
2022-08-26T01:58:05.743Z,30.88
2022-08-26T02:00:35.929Z,31.20
2022-08-26T02:03:18.772Z,28.67
2022-08-26T02:05:51.544Z,32.13
2022-08-26T02:08:24.787Z,30.80
2022-08-26T02:10:56.141Z,33.95
2022-08-26T02:13:27.475Z,33.53
2022-08-26T02:15:56.252Z,34.75
2022-08-26T02:18:25.912Z,27.52
2022-08-26T02:20:55.930Z,27.33
2022-08-26T02:23:24.472Z,28.98
2022-08-26T02:25:59.434Z,35.42
2022-08-26T02:28:30.000Z,30.02
2022-08-26T02:30:57.986Z,35.65
2022-08-26T02:33:29.275Z,25.80
2022-08-26T02:35:57.904Z,26.52
2022-08-26T02:38:26.078Z,32.67
2022-08-26T02:40:55.247Z,27.38
2022-08-26T02:43:31.205Z,30.38
2022-08-26T02:46:01.947Z,30.60
2022-08-26T02:48:30.526Z,27.83
2022-08-26T02:51:00.184Z,40.65
2022-08-26T02:53:28.089Z,38.95
2022-08-26T02:56:01.434Z,32.63
2022-08-26T02:58:29.269Z,29.90
2022-08-26T03:00:57.164Z,26.13
2022-08-26T03:03:25.326Z,29.48
2022-08-26T03:05:53.332Z,31.67
2022-08-26T03:08:22.276Z,32.55
2022-08-26T03:10:51.015Z,34.65
2022-08-26T03:13:20.228Z,26.60
2022-08-26T03:15:48.193Z,36.00
2022-08-26T03:18:16.240Z,38.65
2022-08-26T03:20:44.129Z,29.10
2022-08-26T03:23:12.578Z,30.33
2022-08-26T03:25:40.653Z,34.05
2022-08-26T03:28:09.721Z,32.35
2022-08-26T03:30:44.756Z,28.85
2022-08-26T03:33:14.806Z,27.05
2022-08-26T03:35:45.440Z,35.80
2022-08-26T03:38:13.281Z,28.52
2022-08-26T03:40:43.430Z,35.40
2022-08-26T03:43:12.358Z,27.00
2022-08-26T03:45:41.910Z,31.58
2022-08-26T03:48:11.406Z,31.33
2022-08-26T03:50:40.012Z,27.92
2022-08-26T03:53:08.825Z,37.50
2022-08-26T03:55:42.326Z,32.88
2022-08-26T03:58:11.166Z,38.92
2022-08-26T04:00:39.406Z,37.72
2022-08-26T04:03:09.930Z,33.25
2022-08-26T04:05:38.487Z,34.78
2022-08-26T04:08:06.443Z,27.85
2022-08-26T04:10:34.340Z,32.50
2022-08-26T04:13:02.427Z,35.38
2022-08-26T04:15:30.388Z,34.75
2022-08-26T04:17:58.332Z,30.95
2022-08-26T04:20:28.988Z,27.80
2022-08-26T04:22:56.797Z,33.80
2022-08-26T04:25:24.981Z,39.55
2022-08-26T04:27:53.138Z,24.33
2022-08-26T04:30:21.888Z,31.30
2022-08-26T04:32:51.051Z,25.52
2022-08-26T04:35:25.434Z,29.00
2022-08-26T04:37:56.067Z,31.08
2022-08-26T04:40:26.558Z,28.33
2022-08-26T04:42:54.753Z,28.02
2022-08-26T04:45:23.091Z,29.45
2022-08-26T04:47:54.580Z,30.00
2022-08-26T04:50:23.664Z,28.67
2022-08-26T04:52:52.838Z,29.25
2022-08-26T04:55:21.974Z,28.45
2022-08-26T04:58:08.720Z,25.98
2022-08-26T05:00:39.055Z,28.10
2022-08-26T05:03:07.754Z,29.05
2022-08-26T05:05:40.900Z,23.60
2022-08-26T05:08:09.141Z,23.17
2022-08-26T05:10:42.788Z,29.15
2022-08-26T05:13:15.139Z,27.00
2022-08-26T05:15:44.150Z,28.90
2022-08-26T05:18:13.844Z,28.27
2022-08-26T05:20:43.444Z,22.50
2022-08-26T05:23:11.375Z,38.63
2022-08-26T05:25:41.936Z,27.15
2022-08-26T05:28:10.164Z,28.33
2022-08-26T05:30:39.980Z,26.80
2022-08-26T05:33:09.598Z,22.33
2022-08-26T05:35:39.533Z,28.08
2022-08-26T05:38:12.664Z,26.80
2022-08-26T05:40:45.470Z,28.58
2022-08-26T05:43:14.260Z,30.42
2022-08-26T05:45:46.249Z,30.00
2022-08-26T05:48:16.445Z,32.75
2022-08-26T05:50:46.400Z,30.25
2022-08-26T05:53:16.391Z,35.72
2022-08-26T05:55:48.307Z,35.38
2022-08-26T05:58:17.450Z,37.45
2022-08-26T06:00:45.577Z,36.38
2022-08-26T06:03:13.625Z,38.20
2022-08-26T06:05:42.310Z,34.63
2022-08-26T06:08:14.077Z,30.27
2022-08-26T06:10:51.257Z,34.60
2022-08-26T06:13:25.835Z,32.47
2022-08-26T06:15:54.667Z,31.70
2022-08-26T06:18:27.374Z,30.38
2022-08-26T06:20:58.360Z,41.20
2022-08-26T06:23:45.679Z,32.38
2022-08-26T06:26:16.069Z,41.40
2022-08-26T06:28:45.595Z,34.50
2022-08-26T06:31:14.560Z,33.63
2022-08-26T06:33:43.786Z,37.67
2022-08-26T06:36:18.592Z,28.88
2022-08-26T06:38:47.870Z,27.80
2022-08-26T06:41:18.122Z,38.47
2022-08-26T06:43:46.063Z,27.23
2022-08-26T06:46:17.197Z,31.98
2022-08-26T06:48:45.553Z,30.70
2022-08-26T06:51:15.939Z,28.38
2022-08-26T06:53:46.974Z,33.35
2022-08-26T06:56:20.194Z,33.38
2022-08-26T06:58:48.003Z,30.95
2022-08-26T07:01:18.233Z,26.27
2022-08-26T07:03:48.561Z,28.58
2022-08-26T07:06:19.327Z,31.70
2022-08-26T07:08:47.104Z,27.80
2022-08-26T07:11:17.325Z,25.30
2022-08-26T07:13:45.043Z,23.93
2022-08-26T07:16:18.998Z,24.83
2022-08-26T07:18:48.520Z,24.90
2022-08-26T07:21:18.332Z,22.17
2022-08-26T07:23:47.114Z,19.30
2022-08-26T07:26:19.620Z,26.43
2022-08-26T07:28:50.643Z,28.37
2022-08-26T07:31:23.499Z,25.20
2022-08-26T07:33:52.281Z,21.73
2022-08-26T07:36:22.854Z,21.97
2022-08-26T07:38:50.678Z,21.37
2022-08-26T07:41:22.845Z,15.47
2022-08-26T07:43:51.156Z,27.73
2022-08-26T07:46:26.946Z,21.10
2022-08-26T07:48:56.751Z,23.43
2022-08-26T07:51:24.825Z,21.40
2022-08-26T07:53:54.205Z,22.07
2022-08-26T07:56:24.007Z,21.37
2022-08-26T07:58:53.719Z,25.07
2022-08-26T08:01:23.655Z,23.43
2022-08-26T08:03:53.290Z,29.33
2022-08-26T08:06:22.060Z,21.30
2022-08-26T08:08:51.694Z,21.47
2022-08-26T08:11:20.475Z,23.27
2022-08-26T08:13:50.048Z,27.27
2022-08-26T08:16:24.376Z,24.83
2022-08-26T08:18:52.396Z,22.60
2022-08-26T08:21:21.133Z,36.63
2022-08-26T08:23:51.853Z,20.03
2022-08-26T08:26:19.773Z,28.30
2022-08-26T08:28:49.183Z,22.73
2022-08-26T08:31:38.666Z,21.97
2022-08-26T08:34:10.210Z,27.13
2022-08-26T08:36:38.511Z,29.70
2022-08-26T08:39:06.611Z,17.20
2022-08-26T08:42:12.562Z,22.97
2022-08-26T08:44:45.469Z,26.20
2022-08-26T08:47:26.669Z,18.37
2022-08-26T08:50:00.257Z,22.20
2022-08-26T08:52:31.716Z,24.27
2022-08-26T08:54:59.627Z,15.63
2022-08-26T08:57:39.443Z,26.17
2022-08-26T09:00:16.884Z,20.53
2022-08-26T09:02:52.351Z,29.67
2022-08-26T09:05:24.399Z,19.43
2022-08-26T09:07:58.414Z,21.17
2022-08-26T09:10:36.588Z,19.77
2022-08-26T09:13:09.392Z,21.63
2022-08-26T09:15:51.570Z,25.30
2022-08-26T09:18:33.049Z,23.07
2022-08-26T09:21:03.531Z,24.80
2022-08-26T09:23:32.942Z,18.53
2022-08-26T09:26:13.729Z,19.40
2022-08-26T09:28:43.772Z,18.63
2022-08-26T09:31:15.827Z,19.60
2022-08-26T09:33:44.631Z,20.70
2022-08-26T09:36:22.738Z,22.20
2022-08-26T09:38:53.847Z,23.50
2022-08-26T09:41:25.796Z,26.10
2022-08-26T09:44:14.522Z,24.80
2022-08-26T09:46:52.303Z,14.90
2022-08-26T09:49:36.577Z,24.73
2022-08-26T09:52:21.689Z,14.87
2022-08-26T09:55:02.261Z,20.03
2022-08-26T09:57:34.417Z,19.00
2022-08-26T10:00:02.902Z,16.60
2022-08-26T10:02:47.910Z,17.57
2022-08-26T10:05:28.243Z,30.03
2022-08-26T10:07:58.657Z,29.83
2022-08-26T10:10:33.483Z,22.90
2022-08-26T10:13:08.088Z,17.63
2022-08-26T10:15:50.062Z,14.60
2022-08-26T10:18:25.068Z,16.13
2022-08-26T10:20:58.794Z,21.33
2022-08-26T10:23:32.884Z,14.47
2022-08-26T10:26:06.924Z,21.60
2022-08-26T10:28:41.339Z,16.53
2022-08-26T10:31:27.889Z,24.07
2022-08-26T10:34:00.450Z,13.70
2022-08-26T10:39:47.949Z,27.90
2022-08-26T10:42:25.170Z,18.90
2022-08-26T10:45:00.165Z,13.43
2022-08-26T10:47:35.742Z,26.57
2022-08-26T10:50:06.708Z,19.17
2022-08-26T10:52:46.747Z,15.63
2022-08-26T10:55:20.815Z,22.60
2022-08-26T10:57:55.997Z,20.37
2022-08-26T11:00:48.159Z,19.13
2022-08-26T11:03:35.651Z,17.43
2022-08-26T11:06:22.622Z,15.67
2022-08-26T11:08:53.035Z,19.60
2022-08-26T11:11:57.661Z,12.60
2022-08-26T11:14:53.590Z,23.70
2022-08-26T11:17:56.963Z,18.23
2022-08-26T11:20:39.096Z,23.53
2022-08-26T11:23:50.552Z,19.73
2022-08-26T11:26:35.369Z,15.63
2022-08-26T11:29:12.231Z,25.63
2022-08-26T11:31:57.610Z,18.37
2022-08-26T11:34:55.159Z,19.57
2022-08-26T11:37:30.976Z,13.90
2022-08-26T11:40:04.837Z,13.30
2022-08-26T11:42:39.450Z,25.83
2022-08-26T11:45:18.013Z,22.37
2022-08-26T11:47:46.588Z,13.63
2022-08-26T11:50:20.738Z,21.77
2022-08-26T11:52:53.855Z,23.43
2022-08-26T11:55:24.098Z,24.90
2022-08-26T11:57:55.618Z,21.30
2022-08-26T12:00:26.449Z,26.57
2022-08-26T12:02:55.627Z,22.90
2022-08-26T12:05:31.203Z,20.80
2022-08-26T12:08:05.158Z,18.13
2022-08-26T12:10:35.898Z,21.93
2022-08-26T12:13:06.221Z,16.50
2022-08-26T12:15:35.822Z,21.77
2022-08-26T12:18:20.704Z,18.90
2022-08-26T12:20:59.784Z,17.17
2022-08-26T12:23:37.919Z,21.33
2022-08-26T12:26:11.920Z,21.77
2022-08-26T12:28:44.743Z,21.70
2022-08-26T12:31:12.620Z,21.70
2022-08-26T12:33:46.482Z,16.00
2022-08-26T12:36:22.603Z,20.50
2022-08-26T12:38:50.686Z,20.77
2022-08-26T12:41:48.206Z,21.43
2022-08-26T12:44:36.839Z,16.40
2022-08-26T12:47:09.183Z,18.07
2022-08-26T12:49:37.693Z,22.67
2022-08-26T12:52:06.935Z,14.70
2022-08-26T12:54:56.731Z,15.93
2022-08-26T12:57:30.062Z,21.10
2022-08-26T13:00:34.102Z,14.90
2022-08-26T13:03:02.712Z,14.57
2022-08-26T13:05:35.143Z,22.10
2022-08-26T13:08:14.586Z,20.63
2022-08-26T13:10:44.777Z,25.00
2022-08-26T13:13:14.113Z,13.93
2022-08-26T13:15:41.971Z,14.33
2022-08-26T13:18:09.836Z,18.90
2022-08-26T13:20:43.924Z,16.30
2022-08-26T13:23:12.092Z,14.70
2022-08-26T13:25:40.115Z,20.07
2022-08-26T13:28:08.004Z,17.27
2022-08-26T13:30:37.271Z,14.93
2022-08-26T13:33:05.799Z,10.57
2022-08-26T13:35:35.068Z,11.10
2022-08-26T13:38:03.661Z,15.50
2022-08-26T13:40:34.623Z,14.43
2022-08-26T13:43:02.855Z,16.73
2022-08-26T13:45:31.499Z,16.17
2022-08-26T13:48:00.784Z,13.60
2022-08-26T13:50:28.590Z,14.50
2022-08-26T13:52:56.429Z,13.77
2022-08-26T13:55:24.254Z,13.37
2022-08-26T13:57:52.242Z,14.43
2022-08-26T14:00:20.454Z,15.90
2022-08-26T14:02:48.776Z,20.50
2022-08-26T14:05:18.104Z,13.43
2022-08-26T14:07:46.146Z,17.07
2022-08-26T14:10:13.981Z,18.30
2022-08-26T14:12:42.274Z,16.03
2022-08-26T14:15:11.199Z,25.03
2022-08-26T14:17:40.035Z,23.80
2022-08-26T14:20:10.739Z,28.10
2022-08-26T14:22:57.473Z,18.83
2022-08-26T14:25:33.584Z,23.53
2022-08-26T14:28:01.601Z,23.03
2022-08-26T14:30:29.707Z,16.00
2022-08-26T14:33:00.443Z,38.47
2022-08-26T14:35:31.693Z,19.70
2022-08-26T14:38:01.060Z,24.50
2022-08-26T14:40:32.015Z,18.37
2022-08-26T14:43:02.636Z,17.60
2022-08-26T14:45:31.765Z,24.23
2022-08-26T14:47:59.821Z,26.67
2022-08-26T14:50:27.991Z,27.10
2022-08-26T14:53:13.665Z,26.40
2022-08-26T14:55:43.400Z,22.13
2022-08-26T14:58:11.238Z,22.53
2022-08-26T15:00:39.973Z,14.00
2022-08-26T15:03:08.407Z,14.30
2022-08-26T15:05:36.403Z,22.07
2022-08-26T15:08:10.362Z,17.23
2022-08-26T15:10:38.826Z,16.70
2022-08-26T15:13:07.998Z,15.57
2022-08-26T15:15:36.000Z,16.37
2022-08-26T15:18:03.994Z,12.20
2022-08-26T15:23:07.475Z,23.07
2022-08-26T15:25:35.507Z,16.13
2022-08-26T15:28:03.751Z,13.37
2022-08-26T15:30:33.579Z,20.90
2022-08-26T15:33:03.018Z,17.07
2022-08-26T15:35:33.491Z,16.40
2022-08-26T15:38:06.617Z,14.80
2022-08-26T15:40:34.503Z,20.60
2022-08-26T15:43:18.540Z,12.03
2022-08-26T15:45:53.737Z,18.87
2022-08-26T15:48:22.139Z,18.83
2022-08-26T15:50:51.875Z,18.67
2022-08-26T15:53:19.684Z,11.63
2022-08-26T15:55:47.545Z,15.63
2022-08-26T15:58:16.836Z,25.02
2022-08-26T16:00:45.410Z,14.98
2022-08-26T16:03:14.705Z,14.13
2022-08-26T16:05:44.022Z,14.90
2022-08-26T16:08:12.512Z,12.68
2022-08-26T16:10:49.213Z,9.20
2022-08-26T16:13:19.805Z,7.82
2022-08-26T16:15:48.403Z,8.63
2022-08-26T16:18:17.677Z,17.42
2022-08-26T16:21:10.294Z,16.50
2022-08-26T16:23:39.165Z,47.55
2022-08-26T16:26:10.418Z,36.42
2022-08-26T16:28:39.312Z,15.43
2022-08-26T16:31:07.391Z,14.52
2022-08-26T16:33:38.021Z,13.77
2022-08-26T16:36:07.232Z,12.77
2022-08-26T16:38:35.737Z,24.58
2022-08-26T16:41:03.662Z,16.25
2022-08-26T16:43:31.475Z,13.85
2022-08-26T16:45:59.555Z,10.38
2022-08-26T16:48:27.555Z,10.88
2022-08-26T16:50:56.753Z,14.05
2022-08-26T16:53:24.783Z,14.98
2022-08-26T16:55:52.822Z,17.50
2022-08-26T16:58:22.270Z,19.08
2022-08-26T17:00:50.817Z,23.58
2022-08-26T17:03:18.705Z,23.52
2022-08-26T17:05:46.535Z,40.17
2022-08-26T17:08:27.453Z,24.42
2022-08-26T17:10:57.353Z,20.27
2022-08-26T17:13:35.032Z,18.00
2022-08-26T17:16:05.362Z,18.80
2022-08-26T17:18:34.607Z,17.30
2022-08-26T17:21:04.293Z,17.73
2022-08-26T17:23:33.723Z,20.10
2022-08-26T17:26:01.582Z,27.77
2022-08-26T17:28:29.446Z,16.67
2022-08-26T17:30:58.192Z,15.55
2022-08-26T17:33:27.523Z,19.27
2022-08-26T17:35:56.881Z,20.23
2022-08-26T17:38:25.523Z,17.75
2022-08-26T17:40:54.921Z,19.50
2022-08-26T17:43:22.912Z,22.83
2022-08-26T17:45:50.943Z,19.02
2022-08-26T17:48:18.958Z,15.90
2022-08-26T17:50:49.543Z,18.67
2022-08-26T17:54:13.751Z,17.00
2022-08-26T17:56:43.162Z,17.33
2022-08-26T17:59:11.235Z,16.77
2022-08-26T18:01:40.764Z,18.42
2022-08-26T18:04:08.740Z,14.50
2022-08-26T18:06:38.202Z,18.20
2022-08-26T18:09:06.453Z,19.48
2022-08-26T18:11:34.274Z,18.52
2022-08-26T18:14:03.425Z,18.83
2022-08-26T18:16:38.144Z,22.05
2022-08-26T18:19:06.877Z,22.40
2022-08-26T18:21:36.166Z,19.48
2022-08-26T18:24:04.852Z,16.55
2022-08-26T18:26:34.825Z,12.57
2022-08-26T18:29:03.977Z,12.07
2022-08-26T18:31:32.647Z,5.75
2022-08-26T18:34:04.504Z,10.68
2022-08-26T18:36:34.911Z,6.30
2022-08-26T18:39:04.751Z,6.70
2022-08-26T18:41:34.850Z,5.32
2022-08-26T18:44:04.729Z,8.85
2022-08-26T18:46:32.597Z,8.45
2022-08-26T18:49:00.596Z,7.50
2022-08-26T18:51:30.631Z,5.53
2022-08-26T18:53:59.424Z,6.80
2022-08-26T18:56:27.894Z,8.10
2022-08-26T18:58:55.738Z,11.00
2022-08-26T19:01:27.528Z,6.60
2022-08-26T19:03:56.130Z,9.32
2022-08-26T19:06:25.685Z,8.00
2022-08-26T19:08:53.762Z,5.55
2022-08-26T19:11:32.380Z,7.70
2022-08-26T19:14:07.464Z,5.07
2022-08-26T19:16:38.733Z,7.63
2022-08-26T19:19:07.217Z,10.93
2022-08-26T19:21:36.867Z,9.40
2022-08-26T19:24:09.346Z,5.93
2022-08-26T19:26:38.927Z,7.07
2022-08-26T19:29:06.868Z,8.68
2022-08-26T19:31:36.368Z,10.30
2022-08-26T19:34:07.347Z,8.15
2022-08-26T19:36:35.981Z,9.50
2022-08-26T19:39:07.699Z,8.90
2022-08-26T19:41:38.015Z,14.80
2022-08-26T19:44:09.246Z,11.45
2022-08-26T19:49:12.127Z,8.80
2022-08-26T19:51:40.075Z,10.02
2022-08-26T19:54:07.966Z,8.90
2022-08-26T19:56:36.533Z,12.77
2022-08-26T19:59:04.491Z,9.40
2022-08-26T20:01:32.325Z,9.80
2022-08-26T20:04:01.638Z,13.68
2022-08-26T20:06:29.476Z,8.98
2022-08-26T20:08:57.375Z,9.68
2022-08-26T20:11:25.544Z,9.68
2022-08-26T20:13:53.456Z,12.90
2022-08-26T20:16:21.574Z,9.68
2022-08-26T20:19:07.246Z,9.82
2022-08-26T20:21:40.729Z,12.68
2022-08-26T20:24:13.400Z,11.95
2022-08-26T20:26:43.630Z,7.40
2022-08-26T20:29:13.215Z,12.80
2022-08-26T20:31:45.345Z,11.00
2022-08-26T20:34:16.396Z,11.63
2022-08-26T20:36:47.720Z,9.38
2022-08-26T20:39:16.696Z,11.52
2022-08-26T20:41:45.425Z,8.40
2022-08-26T20:44:14.436Z,9.35
2022-08-26T20:46:42.571Z,7.43
2022-08-26T20:49:10.756Z,6.72
2022-08-26T20:51:39.124Z,9.15
2022-08-26T20:54:08.716Z,9.07
2022-08-26T20:56:36.809Z,8.27
2022-08-26T20:59:06.822Z,9.05
2022-08-26T21:01:37.109Z,14.25
2022-08-26T21:04:12.218Z,8.68
2022-08-26T21:06:40.255Z,10.45
2022-08-26T21:09:14.680Z,10.48
2022-08-26T21:11:45.118Z,12.23
2022-08-26T21:14:16.762Z,11.38
2022-08-26T21:16:46.278Z,16.05
2022-08-26T21:19:17.937Z,14.25
2022-08-26T21:21:46.478Z,10.00
2022-08-26T21:24:16.225Z,8.98
2022-08-26T21:26:44.116Z,9.60
2022-08-26T21:29:13.512Z,11.70
2022-08-26T21:34:35.244Z,10.82
2022-08-26T21:37:03.587Z,10.20
2022-08-26T21:39:42.484Z,9.43
2022-08-26T21:42:10.235Z,11.75
2022-08-26T21:44:38.107Z,12.10
2022-08-26T21:47:07.117Z,10.25
2022-08-26T21:49:34.932Z,13.52
2022-08-26T21:52:04.561Z,14.30
2022-08-26T21:54:32.870Z,12.13
2022-08-26T21:57:02.087Z,11.02
2022-08-26T21:59:29.979Z,9.55
2022-08-26T22:01:57.999Z,8.63
2022-08-26T22:04:25.896Z,9.70
2022-08-26T22:06:57.564Z,8.60
2022-08-26T22:09:29.075Z,10.63
2022-08-26T22:11:57.437Z,10.43
2022-08-26T22:14:30.482Z,13.48
2022-08-26T22:16:59.821Z,9.73
2022-08-26T22:19:31.814Z,11.68
2022-08-26T22:22:03.944Z,8.20
2022-08-26T22:24:31.748Z,9.70
2022-08-26T22:26:59.588Z,12.77
2022-08-26T22:29:28.687Z,11.48
2022-08-26T22:31:57.481Z,13.30
2022-08-26T22:34:26.239Z,8.80
2022-08-26T22:36:54.098Z,8.90
2022-08-26T22:39:26.604Z,9.77
2022-08-26T22:41:56.791Z,12.90
2022-08-26T22:44:24.811Z,9.50
2022-08-26T22:46:55.063Z,12.57
2022-08-26T22:49:23.836Z,9.68
2022-08-26T22:51:52.157Z,10.40
2022-08-26T22:54:20.038Z,10.57
2022-08-26T22:56:47.816Z,11.35
2022-08-26T22:59:16.315Z,13.38
2022-08-26T23:01:46.414Z,15.50
2022-08-26T23:04:15.685Z,12.32
2022-08-26T23:06:47.473Z,17.38
2022-08-26T23:09:18.331Z,10.15
2022-08-26T23:11:47.721Z,13.20
2022-08-26T23:14:16.389Z,9.52
2022-08-26T23:16:44.319Z,10.82
2022-08-26T23:19:14.026Z,11.85
2022-08-26T23:21:43.299Z,15.23
2022-08-26T23:24:12.225Z,11.50
2022-08-26T23:26:41.439Z,10.70
2022-08-26T23:29:11.459Z,10.48
2022-08-26T23:31:40.724Z,10.02
2022-08-26T23:34:26.522Z,10.93
2022-08-26T23:37:00.217Z,10.70
2022-08-26T23:39:29.037Z,14.13
2022-08-26T23:41:57.364Z,11.48
2022-08-26T23:44:26.476Z,10.43
2022-08-26T23:46:54.289Z,11.40
2022-08-26T23:49:22.243Z,14.95
2022-08-26T23:52:07.567Z,10.00
2022-08-26T23:54:36.816Z,11.07
2022-08-26T23:57:04.779Z,11.45
2022-08-26T23:59:32.776Z,11.52
